Kenna, West Virginia
Current Conditions -  °F | °C
As of 8:54 PM on Sunday 23 Nov 2014 (Local Time) from KCRW Reporting Station
Moderate Rain Moderate Rain  
Wind Chill: 59°   Ceiling: 7000
Heat Index: 59°   Visibility: 6mi
Dew Point: 53°   Wind: 15mph
Humidity: 81%   Direction: 140°SE
Pressure: 29.56"   Gusts: 23mph
Location:  38.68°N, 81.66°W
Report Text: KCRW 240154Z 14013G20KT 6SM RA BKN070 OVC100 15/12 A2956 RMK AO2 PK WND 12026/0117 SLP008 P0004 T01500117
Loading
Personal Weather Stations






























Interactive Weather Map New forecast layout! Learn more

10-Day Weather Forecast

Advertisements
Track Severe Weather on mobile